Terminal Aerodrome Forecast
Issued by NWS

Home | Current Version | Previous Version | Text Only | Print | Product List | Glossary Off
Versions: 1 2 3 4 5 6 7 8 9 10 11 12 13 14

000
FTUS45 KRIW 251124
TAFBPI
TAF
KBPI 251124Z 2512/2612 VRB05KT P6SM SKC
     FM252000 27008KT P6SM SCT110
     FM260100 33007KT P6SM SCT110
     FM260800 VRB05KT P6SM SKC=

USA.gov is the U.S. government's official web portal to all federal, state and local government web resources and services.